Time;durP1;ratioP1;P1;durP2;ratioP2;P2;SDS_P1;SDS_P2;PMS_P1;PMS_P2;Temp;Humidity;BMP_temperature;BMP_pressure;BME280_temperature;BME280_humidity;BME280_pressure;Samples;Min_cycle;Max_cycle;Signal;HPM_P1;HPM_P2
2021/05/19 02:47:39;;;;;;;3.33;3.13;;;9.50;99.90;;;;;;5331090;22;88284;-82
2021/05/19 02:50:05;;;;;;;3.08;2.88;;;9.50;99.90;;;;;;4970860;28;87377;-83
2021/05/19 02:52:31;;;;;;;3.08;2.85;;;9.50;99.90;;;;;;4972466;28;87201;-84
2021/05/19 02:54:57;;;;;;;2.38;2.22;;;9.50;99.90;;;;;;4967117;28;86933;-84
2021/05/19 02:57:23;;;;;;;4.38;3.15;;;9.40;99.90;;;;;;4970236;28;86260;-84
2021/05/19 02:59:48;;;;;;;2.47;2.35;;;9.30;99.90;;;;;;4967230;28;87194;-81
2021/05/19 03:02:14;;;;;;;2.67;2.38;;;9.40;99.90;;;;;;4982204;28;87307;-83
2021/05/19 03:04:40;;;;;;;2.75;2.45;;;9.30;99.90;;;;;;4986309;28;87909;-82
2021/05/19 03:07:06;;;;;;;2.42;2.33;;;9.30;99.90;;;;;;4981289;28;86905;-81
2021/05/19 03:09:31;;;;;;;3.03;2.80;;;9.40;99.90;;;;;;4975714;28;86641;-82
2021/05/19 03:11:57;;;;;;;2.65;2.45;;;9.30;99.90;;;;;;4969953;28;88007;-84
2021/05/19 03:14:23;;;;;;;3.05;2.85;;;9.10;99.90;;;;;;4987106;28;86974;-82
2021/05/19 03:16:48;;;;;;;3.42;2.90;;;9.00;99.90;;;;;;4978147;28;86778;-81
2021/05/19 03:19:14;;;;;;;3.47;3.17;;;9.00;99.90;;;;;;4966862;28;87104;-81
2021/05/19 03:21:40;;;;;;;2.70;2.60;;;9.00;99.90;;;;;;4967383;28;86197;-83
2021/05/19 03:24:06;;;;;;;3.60;2.63;;;9.00;99.90;;;;;;4984249;28;86596;-85
2021/05/19 03:26:33;;;;;;;4.22;3.15;;;9.00;99.90;;;;;;4979726;28;86814;-82
2021/05/19 03:28:58;;;;;;;3.20;3.00;;;9.00;99.90;;;;;;4966068;28;87933;-82
2021/05/19 03:31:24;;;;;;;3.40;3.10;;;9.10;99.90;;;;;;4969542;28;88348;-81
2021/05/19 03:33:50;;;;;;;3.08;2.88;;;9.10;99.90;;;;;;4985674;28;86915;-82
2021/05/19 03:36:16;;;;;;;3.17;3.00;;;9.20;99.90;;;;;;4984714;28;87281;-82
2021/05/19 03:38:42;;;;;;;3.67;3.30;;;9.30;99.90;;;;;;4966142;28;86961;-82
2021/05/19 03:41:07;;;;;;;3.10;2.90;;;9.30;99.90;;;;;;4976540;28;87025;-83
2021/05/19 03:43:36;;;;;;;3.45;3.25;;;9.30;99.90;;;;;;4985775;28;86899;-83
2021/05/19 03:46:02;;;;;;;2.70;2.50;;;9.30;99.90;;;;;;4985568;28;86160;-83
2021/05/19 03:48:29;;;;;;;3.28;3.05;;;9.40;99.90;;;;;;4947464;28;86953;-82
2021/05/19 03:50:55;;;;;;;3.00;2.80;;;;;;;;;;4945858;28;87398;-83
2021/05/19 03:53:20;;;;;;;3.17;2.97;;;9.50;99.90;;;;;;4946898;28;87836;-82
2021/05/19 03:55:46;;;;;;;3.28;2.88;;;9.50;99.90;;;;;;4951530;28;87020;-85
2021/05/19 03:58:13;;;;;;;3.17;2.97;;;9.40;99.90;;;;;;4952127;28;87359;-84
2021/05/19 04:00:39;;;;;;;3.10;2.95;;;9.40;99.90;;;;;;4952114;28;88267;-83
2021/05/19 04:03:06;;;;;;;3.72;3.40;;;9.50;99.90;;;;;;4950096;28;86462;-83
2021/05/19 04:05:36;;;;;;;4.10;3.80;;;9.50;99.90;;;;;;4955205;28;86858;-83
2021/05/19 04:08:03;;;;;;;3.88;3.53;;;9.40;99.90;;;;;;4950142;28;87681;-84
2021/05/19 04:10:28;;;;;;;4.22;3.67;;;9.50;99.90;;;;;;4956479;28;87086;-85
2021/05/19 04:12:54;;;;;;;4.05;3.78;;;9.50;99.90;;;;;;4956349;28;87062;-85
2021/05/19 04:15:22;;;;;;;5.72;3.42;;;9.40;99.90;;;;;;4956174;28;87040;-84
2021/05/19 04:17:48;;;;;;;3.85;3.55;;;9.40;99.90;;;;;;4954845;28;88035;-85
2021/05/19 04:20:15;;;;;;;4.28;3.97;;;9.40;99.90;;;;;;4953900;28;87824;-86
2021/05/19 04:22:41;;;;;;;4.43;3.72;;;9.40;99.90;;;;;;4954046;28;88026;-84
2021/05/19 04:25:07;;;;;;;5.95;4.18;;;9.50;99.90;;;;;;4954575;28;87057;-85
2021/05/19 04:27:33;;;;;;;5.03;3.80;;;9.50;99.90;;;;;;4957576;28;86753;-85
2021/05/19 04:29:59;;;;;;;5.75;4.13;;;9.60;99.90;;;;;;4956844;28;86848;-84
2021/05/19 04:32:25;;;;;;;5.00;3.95;;;9.60;99.90;;;;;;4960189;28;86468;-85
2021/05/19 04:34:51;;;;;;;3.88;3.35;;;9.50;99.90;;;;;;4951173;28;86258;-84
2021/05/19 04:37:17;;;;;;;5.82;3.45;;;9.60;99.90;;;;;;4958158;28;87772;-84
2021/05/19 04:39:43;;;;;;;4.82;4.20;;;9.60;99.90;;;;;;4951554;28;87156;-84
2021/05/19 04:42:09;;;;;;;7.72;4.07;;;9.60;99.90;;;;;;4953365;28;88264;-85
2021/05/19 04:44:34;;;;;;;3.80;3.50;;;9.60;99.90;;;;;;4956924;28;86425;-85
2021/05/19 04:47:00;;;;;;;3.72;3.42;;;9.70;99.90;;;;;;4958206;28;87647;-85
2021/05/19 04:49:26;;;;;;;3.72;3.42;;;9.70;99.90;;;;;;4966258;28;86963;-84
2021/05/19 04:51:52;;;;;;;3.80;3.50;;;9.80;99.90;;;;;;4963935;28;86914;-83
2021/05/19 04:54:18;;;;;;;4.00;3.70;;;9.70;99.90;;;;;;4950012;28;86548;-85
2021/05/19 04:56:44;;;;;;;5.55;3.95;;;9.80;99.90;;;;;;4965710;28;87032;-83
2021/05/19 04:59:10;;;;;;;3.95;3.65;;;9.80;99.90;;;;;;4951820;28;87062;-84
2021/05/19 05:01:35;;;;;;;4.13;3.83;;;9.80;99.90;;;;;;4970042;28;86868;-84
2021/05/19 05:04:01;;;;;;;4.40;4.00;;;9.80;99.90;;;;;;4938820;28;87014;-83
2021/05/19 05:06:27;;;;;;;4.32;3.67;;;9.90;99.90;;;;;;4962944;28;87848;-84
2021/05/19 05:08:53;;;;;;;4.20;3.22;;;10.00;99.90;;;;;;4959268;28;87283;-84
2021/05/19 05:11:19;;;;;;;4.00;3.58;;;9.90;99.90;;;;;;4953879;28;86863;-84
2021/05/19 05:13:45;;;;;;;3.80;3.50;;;9.80;99.90;;;;;;4958333;28;86948;-84
2021/05/19 05:16:10;;;;;;;3.67;3.30;;;9.90;99.90;;;;;;4950087;28;87134;-84
2021/05/19 05:18:38;;;;;;;3.83;3.10;;;10.00;99.90;;;;;;4952576;28;87266;-83
2021/05/19 05:21:05;;;;;;;4.30;3.03;;;10.20;99.90;;;;;;4953895;28;86870;-82
2021/05/19 05:23:31;;;;;;;2.60;2.47;;;10.20;99.90;;;;;;4962653;28;86602;-84
2021/05/19 05:25:57;;;;;;;4.25;2.85;;;10.30;99.90;;;;;;4963389;28;87248;-84
2021/05/19 05:28:23;;;;;;;3.47;3.28;;;10.20;99.90;;;;;;4961607;28;87327;-83
2021/05/19 05:30:49;;;;;;;3.63;3.33;;;10.20;99.90;;;;;;4960919;28;87497;-85
2021/05/19 05:33:15;;;;;;;3.42;3.20;;;10.10;99.90;;;;;;4952593;28;86977;-84
2021/05/19 05:35:57;;;;;;;3.50;3.20;;;10.10;99.90;;;;;;4958141;28;88360;-86
2021/05/19 05:38:23;;;;;;;3.47;3.17;;;;;;;;;;4952966;28;87001;-87
2021/05/19 05:41:01;;;;;;;3.15;2.95;;;10.10;99.90;;;;;;4948509;28;86952;-85
2021/05/19 05:43:27;;;;;;;2.80;2.60;;;10.20;99.90;;;;;;4956424;28;86367;-86
2021/05/19 05:45:53;;;;;;;3.50;3.20;;;10.20;99.90;;;;;;4953402;28;87301;-86
2021/05/19 05:48:20;;;;;;;4.10;3.75;;;10.20;99.90;;;;;;5076016;22;87089;-87
2021/05/19 05:50:46;;;;;;;3.67;3.47;;;10.10;99.90;;;;;;4982273;28;86901;-86
2021/05/19 05:53:12;;;;;;;3.22;2.70;;;10.20;99.90;;;;;;4985584;28;86787;-83
2021/05/19 05:55:37;;;;;;;3.33;3.03;;;10.20;99.90;;;;;;4984919;28;88004;-85
2021/05/19 05:58:03;;;;;;;3.00;2.80;;;10.10;99.90;;;;;;4983349;28;89263;-87
2021/05/19 06:00:29;;;;;;;15.70;3.67;;;10.20;99.90;;;;;;4986313;28;86977;-86
2021/05/19 06:02:54;;;;;;;3.60;3.40;;;10.30;99.90;;;;;;4986001;28;86800;-85
2021/05/19 06:05:20;;;;;;;3.05;2.85;;;10.40;99.90;;;;;;4982306;28;87030;-87
2021/05/19 06:07:46;;;;;;;3.13;3.00;;;10.50;99.90;;;;;;4980380;28;87379;-85
2021/05/19 06:10:13;;;;;;;3.40;3.10;;;10.60;99.90;;;;;;4985039;28;86997;-85
2021/05/19 06:12:39;;;;;;;3.72;3.53;;;10.60;99.90;;;;;;4986784;28;85734;-85
2021/05/19 06:15:06;;;;;;;3.42;3.22;;;10.70;99.90;;;;;;4981553;28;87120;-86
2021/05/19 06:17:32;;;;;;;3.40;3.10;;;10.60;99.90;;;;;;4979613;28;86935;-85
2021/05/19 06:19:58;;;;;;;3.53;3.33;;;10.70;99.90;;;;;;4986787;28;87268;-85
2021/05/19 06:22:23;;;;;;;4.45;4.18;;;10.80;99.90;;;;;;4984907;28;87054;-85
2021/05/19 06:24:49;;;;;;;4.25;3.88;;;11.00;99.90;;;;;;4982035;28;87124;-86
2021/05/19 06:27:15;;;;;;;4.72;4.43;;;11.00;99.90;;;;;;4962899;28;90357;-85
2021/05/19 06:29:41;;;;;;;4.80;3.85;;;11.10;99.90;;;;;;4980940;28;87079;-86
2021/05/19 06:32:08;;;;;;;3.90;3.60;;;11.30;99.90;;;;;;4985091;28;87077;-85
2021/05/19 06:34:35;;;;;;;4.07;3.53;;;11.50;99.90;;;;;;4967387;28;90416;-86
2021/05/19 06:37:01;;;;;;;4.10;3.80;;;11.70;99.90;;;;;;4986061;28;86850;-86
2021/05/19 06:39:27;;;;;;;4.05;3.75;;;11.70;99.90;;;;;;4987245;28;87065;-85
2021/05/19 06:41:53;;;;;;;6.53;6.05;;;11.90;99.90;;;;;;4986606;28;86728;-85
2021/05/19 06:44:20;;;;;;;6.85;5.32;;;11.90;99.90;;;;;;4982782;28;87983;-85
2021/05/19 06:46:46;;;;;;;7.53;7.03;;;11.90;99.90;;;;;;4981018;28;87667;-84
2021/05/19 06:49:13;;;;;;;7.40;7.05;;;12.00;99.90;;;;;;4982073;28;87059;-86
2021/05/19 06:51:42;;;;;;;6.97;6.55;;;12.10;99.90;;;;;;4988179;28;86517;-85
2021/05/19 06:54:08;;;;;;;6.68;6.28;;;12.10;99.90;;;;;;4983883;28;87352;-85
2021/05/19 06:56:35;;;;;;;4.82;4.40;;;12.20;99.90;;;;;;4987388;28;86387;-84
2021/05/19 06:59:01;;;;;;;6.20;5.10;;;12.60;99.90;;;;;;4984883;28;87066;-85
2021/05/19 07:01:27;;;;;;;4.82;4.30;;;12.60;99.90;;;;;;4991947;28;86295;-84
2021/05/19 07:03:53;;;;;;;6.30;5.85;;;12.90;99.90;;;;;;4983462;28;88505;-84
2021/05/19 07:06:20;;;;;;;5.93;5.53;;;13.10;99.90;;;;;;4989184;28;87867;-86
2021/05/19 07:08:46;;;;;;;6.43;6.03;;;13.20;99.90;;;;;;4985861;28;87941;-85
2021/05/19 07:11:13;;;;;;;5.82;5.53;;;13.50;99.90;;;;;;4989289;28;86824;-85
2021/05/19 07:13:39;;;;;;;4.30;3.90;;;13.80;99.90;;;;;;4983595;28;87657;-85
2021/05/19 07:16:05;;;;;;;6.05;5.65;;;14.10;99.90;;;;;;4989774;28;86851;-86
2021/05/19 07:18:31;;;;;;;5.38;5.07;;;14.40;99.90;;;;;;4960055;28;86992;-86
2021/05/19 07:20:57;;;;;;;4.45;4.18;;;14.50;99.90;;;;;;4963469;28;87073;-86
2021/05/19 07:23:23;;;;;;;5.03;4.70;;;14.70;99.90;;;;;;4984856;28;87588;-84
2021/05/19 07:25:49;;;;;;;6.35;5.88;;;14.80;99.90;;;;;;4984095;28;86992;-85
2021/05/19 07:28:15;;;;;;;4.90;4.50;;;15.00;99.90;;;;;;4986727;28;86917;-85
2021/05/19 07:30:43;;;;;;;6.15;5.75;;;15.10;99.90;;;;;;4983453;28;87143;-84
2021/05/19 07:33:11;;;;;;;6.30;6.03;;;15.20;99.90;;;;;;4984642;28;89593;-85
2021/05/19 07:35:38;;;;;;;6.97;6.55;;;15.30;99.30;;;;;;4986516;28;87836;-87
2021/05/19 07:38:06;;;;;;;6.07;5.82;;;15.20;99.60;;;;;;4982562;28;86749;-86
2021/05/19 07:40:32;;;;;;;6.50;5.65;;;15.10;98.70;;;;;;4986619;28;86921;-86
2021/05/19 07:42:58;;;;;;;7.80;7.32;;;15.10;99.40;;;;;;4982258;28;87645;-86
2021/05/19 07:45:24;;;;;;;8.00;7.60;;;15.00;98.70;;;;;;4984132;28;86782;-86
2021/05/19 07:47:50;;;;;;;6.82;6.45;;;14.80;98.00;;;;;;4984031;28;86973;-86
2021/05/19 07:50:15;;;;;;;6.15;5.75;;;14.60;98.30;;;;;;4987549;28;86130;-86
2021/05/19 07:52:41;;;;;;;5.00;4.60;;;14.40;98.50;;;;;;4984679;28;87622;-86
2021/05/19 07:55:12;;;;;;;5.72;5.32;;;14.20;98.10;;;;;;4985408;28;87349;-85
2021/05/19 07:57:51;;;;;;;5.13;4.82;;;14.00;99.30;;;;;;4981047;28;87884;-87
2021/05/19 08:00:25;;;;;;;5.05;4.75;;;14.00;98.80;;;;;;4987753;28;86818;-84
2021/05/19 08:02:51;;;;;;;4.60;4.30;;;13.80;99.30;;;;;;4987185;28;88313;-84
2021/05/19 08:05:17;;;;;;;4.65;4.45;;;13.90;98.70;;;;;;4980337;28;87380;-85
2021/05/19 08:07:43;;;;;;;5.05;4.80;;;14.10;99.50;;;;;;4986212;28;86874;-86
2021/05/19 08:10:09;;;;;;;7.90;7.30;;;14.30;98.70;;;;;;4986893;28;87121;-84
2021/05/19 08:12:35;;;;;;;6.38;5.93;;;14.50;96.20;;;;;;4979918;28;86922;-86
2021/05/19 08:15:01;;;;;;;5.07;4.65;;;14.60;95.80;;;;;;4984122;28;86136;-85
2021/05/19 08:17:26;;;;;;;5.53;5.30;;;14.70;93.80;;;;;;4985442;28;86549;-86
2021/05/19 08:19:52;;;;;;;8.25;7.93;;;14.70;93.80;;;;;;4978370;28;87685;-85
2021/05/19 08:22:18;;;;;;;7.25;6.95;;;14.80;93.20;;;;;;4983922;28;88591;-85
2021/05/19 08:24:44;;;;;;;5.55;5.28;;;14.80;93.60;;;;;;4986331;28;87849;-86
2021/05/19 08:27:11;;;;;;;9.52;9.13;;;14.60;92.70;;;;;;4991908;28;87460;-84
2021/05/19 08:29:37;;;;;;;7.50;7.20;;;14.70;94.10;;;;;;4985499;28;86936;-86
2021/05/19 08:32:04;;;;;;;8.68;8.20;;;14.70;93.00;;;;;;4984660;28;88201;-83
2021/05/19 08:34:30;;;;;;;5.47;5.20;;;14.70;93.40;;;;;;4980375;28;86798;-84
2021/05/19 08:36:56;;;;;;;6.28;5.82;;;14.60;91.90;;;;;;4981799;28;87000;-84
2021/05/19 08:39:22;;;;;;;4.88;4.57;;;14.70;92.60;;;;;;4987189;28;85880;-84
2021/05/19 08:41:49;;;;;;;4.85;4.47;;;15.30;91.50;;;;;;4983276;28;88647;-85
2021/05/19 08:44:15;;;;;;;5.00;4.70;;;15.50;91.90;;;;;;4987100;28;87626;-84
2021/05/19 08:46:47;;;;;;;5.70;5.40;;;15.50;91.00;;;;;;4985877;28;88605;-85
2021/05/19 08:49:13;;;;;;;4.30;4.10;;;15.50;90.30;;;;;;4985306;28;86899;-85
2021/05/19 08:51:39;;;;;;;5.63;5.32;;;15.30;88.40;;;;;;4992481;28;87035;-85
2021/05/19 08:54:08;;;;;;;7.10;6.80;;;15.40;88.40;;;;;;4984240;28;86973;-85
2021/05/19 08:56:44;;;;;;;6.13;5.72;;;15.60;85.60;;;;;;4989030;28;86202;-85
2021/05/19 08:59:11;;;;;;;6.55;6.25;;;16.40;83.80;;;;;;4984717;28;86729;-86
2021/05/19 09:01:48;;;;;;;5.03;4.72;;;18.00;85.00;;;;;;4983258;28;87674;-85
2021/05/19 09:04:19;;;;;;;6.50;6.07;;;19.10;72.70;;;;;;4986504;28;87998;-87
2021/05/19 09:06:54;;;;;;;;;;;19.10;70.40;;;;;;4982136;28;87591;-86
2021/05/19 09:09:24;;;;;;;7.07;6.78;;;19.70;69.20;;;;;;4984170;28;88237;-87
2021/05/19 09:12:10;;;;;;;7.77;7.47;;;21.20;68.60;;;;;;4978278;28;88202;-86
2021/05/19 09:14:42;;;;;;;6.85;6.35;;;23.80;58.20;;;;;;4978063;28;87652;-87
2021/05/19 09:17:25;;;;;;;6.68;6.35;;;24.60;55.70;;;;;;4982681;28;87043;-85
2021/05/19 09:20:09;;;;;;;8.05;7.65;;;25.80;50.00;;;;;;4972610;28;86767;-87
2021/05/19 09:22:37;;;;;;;9.27;8.57;;;24.60;49.40;;;;;;4973514;28;87202;-87
2021/05/19 09:25:21;;;;;;;13.07;12.48;;;23.40;51.50;;;;;;4983017;28;87007;-86
2021/05/19 09:27:50;;;;;;;9.05;8.35;;;22.50;52.10;;;;;;4981362;28;87033;-86
2021/05/19 09:30:40;;;;;;;9.35;8.95;;;22.10;54.40;;;;;;4977090;28;86275;-85
2021/05/19 09:33:21;;;;;;;11.63;11.02;;;21.90;55.10;;;;;;4979524;28;87817;-86
2021/05/19 09:36:21;;;;;;;13.10;12.45;;;21.00;57.30;;;;;;4980228;28;87553;-85
2021/05/19 09:38:49;;;;;;;7.77;7.27;;;20.30;57.70;;;;;;4978996;28;88043;-87
2021/05/19 09:41:31;;;;;;;7.18;6.78;;;17.70;72.20;;;;;;4993980;28;86397;-87
2021/05/19 09:43:59;;;;;;;7.72;7.15;;;18.40;64.10;;;;;;4987420;28;87120;-88
2021/05/19 09:49:15;;;;;;;7.68;7.28;;;17.00;62.80;;;;;;4985207;28;87008;-87
2021/05/19 09:51:47;;;;;;;6.63;6.25;;;16.80;72.80;;;;;;4977989;28;86826;-86
2021/05/19 09:54:33;;;;;;;8.10;7.60;;;16.10;68.10;;;;;;4984635;28;86952;-86
2021/05/19 09:57:03;;;;;;;6.57;6.18;;;15.00;75.20;;;;;;4983135;28;86225;-86
2021/05/19 09:59:29;;;;;;;3.53;3.33;;;14.20;79.20;;;;;;4983405;28;87107;-86
2021/05/19 10:01:57;;;;;;;6.28;5.82;;;13.10;83.90;;;;;;4986569;28;87080;-86
2021/05/19 10:04:27;;;;;;;5.25;4.95;;;12.50;90.80;;;;;;4980737;28;89281;-86
2021/05/19 10:07:15;;;;;;;3.72;3.53;;;12.10;93.80;;;;;;4994154;28;88468;-85
2021/05/19 10:09:41;;;;;;;3.72;3.53;;;12.20;94.90;;;;;;4979794;28;87050;-85
2021/05/19 10:12:08;;;;;;;5.35;5.05;;;12.30;95.50;;;;;;4968192;28;87076;-85
2021/05/19 10:14:36;;;;;;;3.85;3.65;;;12.50;98.20;;;;;;4973648;28;88823;-85
2021/05/19 10:17:07;;;;;;;4.85;4.55;;;13.40;98.50;;;;;;4976330;28;86952;-85
2021/05/19 10:19:40;;;;;;;5.50;5.20;;;16.00;98.20;;;;;;4977252;28;86596;-88
2021/05/19 10:22:09;;;;;;;7.78;7.28;;;19.80;92.40;;;;;;4974347;28;86317;-88
2021/05/19 10:24:48;;;;;;;5.95;5.65;;;23.30;71.90;;;;;;4973351;28;86934;-88
2021/05/19 10:27:15;;;;;;;8.00;7.57;;;25.90;54.90;;;;;;4972399;28;86991;-86
2021/05/19 10:29:47;;;;;;;10.68;9.98;;;27.40;52.60;;;;;;4979656;28;87915;-87
2021/05/19 10:32:22;;;;;;;14.73;13.82;;;27.80;47.10;;;;;;4970964;28;86948;-88
2021/05/19 10:34:49;;;;;;;18.92;18.15;;;28.30;46.40;;;;;;4948814;28;91072;-87
2021/05/19 10:37:30;;;;;;;13.27;12.57;;;29.40;44.10;;;;;;4967860;28;88103;-88
2021/05/19 10:40:16;;;;;;;11.73;11.20;;;28.10;44.00;;;;;;5104352;22;87557;-85
2021/05/19 10:45:25;;;;;;;12.23;11.60;;;26.40;46.10;;;;;;5002980;22;87665;-82
2021/05/19 10:47:51;;;;;;;13.00;12.35;;;23.20;51.10;;;;;;4952977;28;87761;-85
2021/05/19 10:58:41;;;;;;;6.05;5.60;;;16.20;69.80;;;;;;4962559;28;86896;-85
2021/05/19 11:01:09;;;;;;;12.35;11.68;;;15.50;72.70;;;;;;4955847;28;87032;-85
2021/05/19 11:03:34;;;;;;;9.27;8.88;;;14.90;75.80;;;;;;4957110;28;86809;-86
2021/05/19 11:06:00;;;;;;;7.43;6.82;;;14.40;80.20;;;;;;4958106;28;89036;-87
2021/05/19 11:08:31;;;;;;;4.97;4.78;;;14.10;83.80;;;;;;4950386;28;88008;-85
2021/05/19 11:11:31;;;;;;;;;;;13.80;86.50;;;;;;4959505;28;86624;-85
2021/05/19 11:14:11;;;;;;;4.80;4.50;;;13.60;90.10;;;;;;4947001;28;86281;-86
2021/05/19 11:16:55;;;;;;;5.43;5.03;;;13.30;90.40;;;;;;4951362;28;87809;-85
2021/05/19 11:19:50;;;;;;;5.13;4.82;;;13.10;92.10;;;;;;4958172;28;86875;-85
2021/05/19 11:22:16;;;;;;;4.90;4.60;;;12.70;95.20;;;;;;4941943;28;87897;-83
2021/05/19 11:24:55;;;;;;;5.82;5.47;;;12.40;95.90;;;;;;4955971;28;86577;-84
2021/05/19 11:27:26;;;;;;;4.40;4.07;;;12.10;99.30;;;;;;4954989;28;87374;-84
2021/05/19 11:29:54;;;;;;;5.57;5.18;;;11.90;99.90;;;;;;4966534;28;87061;-83
2021/05/19 11:32:22;;;;;;;6.28;5.78;;;11.70;99.90;;;;;;4957032;28;87074;-83
2021/05/19 11:34:49;;;;;;;9.68;8.88;;;11.70;99.90;;;;;;4953725;28;86702;-83
2021/05/19 11:37:17;;;;;;;8.82;8.07;;;11.70;99.90;;;;;;4969720;28;86720;-83
2021/05/19 11:39:46;;;;;;;6.18;5.68;;;11.70;99.90;;;;;;4971920;28;86295;-82
2021/05/19 11:42:24;;;;;;;7.38;6.65;;;11.80;99.90;;;;;;4955655;28;86950;-82
2021/05/19 11:44:55;;;;;;;7.47;6.63;;;11.70;99.90;;;;;;4963723;28;87062;-82
2021/05/19 11:47:36;;;;;;;5.20;4.85;;;11.70;99.90;;;;;;4956848;28;88740;-83
2021/05/19 11:50:15;;;;;;;7.82;6.45;;;11.60;99.90;;;;;;4967766;28;87972;-82
2021/05/19 11:52:45;;;;;;;6.70;6.00;;;11.60;99.90;;;;;;4965964;28;86855;-82
2021/05/19 11:55:29;;;;;;;4.45;4.05;;;11.70;99.90;;;;;;4964455;28;86940;-82
2021/05/19 11:58:04;;;;;;;4.05;3.65;;;11.80;99.90;;;;;;4965499;28;87572;-83
2021/05/19 12:00:39;;;;;;;5.28;4.78;;;11.90;99.90;;;;;;4951103;28;87041;-84
2021/05/19 12:03:07;;;;;;;4.65;4.35;;;12.10;99.90;;;;;;4957934;28;86972;-82
2021/05/19 12:05:46;;;;;;;6.10;5.35;;;12.20;99.90;;;;;;4967948;28;86813;-83
2021/05/19 12:08:13;;;;;;;5.65;5.28;;;12.50;99.90;;;;;;4966465;28;86964;-83
2021/05/19 12:10:41;;;;;;;7.00;6.40;;;13.10;99.90;;;;;;4958083;28;86535;-83
2021/05/19 12:13:07;;;;;;;9.38;8.63;;;14.60;99.90;;;;;;4959111;28;87256;-83
2021/05/19 12:15:35;;;;;;;5.30;4.90;;;16.80;99.90;;;;;;4950798;28;87057;-82
2021/05/19 12:18:02;;;;;;;6.90;6.28;;;18.80;90.20;;;;;;4958118;28;87241;-85
2021/05/19 12:20:28;;;;;;;8.70;8.10;;;20.60;87.10;;;;;;4964980;28;87150;-84
2021/05/19 12:22:56;;;;;;;6.32;5.93;;;22.20;70.60;;;;;;4961634;28;86976;-85
2021/05/19 12:25:22;;;;;;;7.75;7.35;;;23.50;64.00;;;;;;4963997;28;86438;-85
2021/05/19 12:27:55;;;;;;;7.60;7.07;;;25.10;60.90;;;;;;4958171;28;87142;-85
2021/05/19 12:30:22;;;;;;;12.55;12.00;;;25.90;53.20;;;;;;4970307;28;87395;-85
2021/05/19 12:33:02;;;;;;;15.02;14.43;;;26.80;49.80;;;;;;4956363;28;87069;-85
2021/05/19 12:35:28;;;;;;;;;;;27.20;48.00;;;;;;4968654;28;86809;-85
2021/05/19 12:38:01;;;;;;;12.82;12.32;;;27.70;46.80;;;;;;4968337;28;89030;-85
2021/05/19 12:40:30;;;;;;;14.13;13.63;;;27.40;45.10;;;;;;4957110;28;87367;-85
2021/05/19 12:43:01;;;;;;;13.90;13.40;;;27.50;46.50;;;;;;4971134;28;86996;-85
2021/05/19 12:45:33;;;;;;;10.63;10.02;;;27.70;45.10;;;;;;4954943;28;86583;-85
2021/05/19 12:48:00;;;;;;;7.40;7.00;;;28.40;43.50;;;;;;4953045;28;88011;-86
2021/05/19 12:50:43;;;;;;;8.70;8.32;;;28.30;42.40;;;;;;4964819;28;87927;-86
2021/05/19 12:53:26;;;;;;;7.05;6.70;;;27.70;43.30;;;;;;4977871;28;86196;-85
2021/05/19 12:56:02;;;;;;;6.43;6.22;;;27.50;44.50;;;;;;4966195;28;86224;-83
2021/05/19 12:58:29;;;;;;;6.45;6.25;;;28.30;42.00;;;;;;4968819;28;87580;-86
2021/05/19 13:01:07;;;;;;;6.22;6.03;;;28.40;39.50;;;;;;4970783;28;87284;-86
2021/05/19 13:03:36;;;;;;;4.80;4.60;;;27.70;41.20;;;;;;4964980;28;88085;-88
2021/05/19 13:06:06;;;;;;;5.97;5.78;;;28.00;40.50;;;;;;4939904;28;87111;-86
2021/05/19 13:08:33;;;;;;;5.05;4.85;;;28.70;40.10;;;;;;4955426;28;87865;-87
2021/05/19 13:11:00;;;;;;;6.25;5.93;;;28.70;37.40;;;;;;4948485;28;87538;-87
2021/05/19 13:13:37;;;;;;;5.82;5.53;;;28.80;39.10;;;;;;4947804;28;87165;-87
2021/05/19 13:16:08;;;;;;;4.80;4.60;;;29.30;40.70;;;;;;4954058;28;86828;-87
2021/05/19 13:18:51;;;;;;;4.50;4.30;;;28.30;39.00;;;;;;4961201;28;90053;-88
2021/05/19 13:21:28;;;;;;;5.13;4.93;;;27.00;38.90;;;;;;4964635;28;87922;-88
2021/05/19 13:23:56;;;;;;;5.63;5.43;;;26.00;40.80;;;;;;4965633;28;87373;-87
2021/05/19 13:26:31;;;;;;;4.97;4.78;;;24.60;42.50;;;;;;4959072;28;86867;-86
2021/05/19 13:28:59;;;;;;;5.35;5.15;;;22.80;45.00;;;;;;4963643;28;87934;-87
2021/05/19 13:31:36;;;;;;;4.05;3.95;;;21.50;48.70;;;;;;4940627;28;88005;-86
2021/05/19 13:34:19;;;;;;;4.25;4.15;;;20.80;50.70;;;;;;4951431;28;87066;-86
2021/05/19 13:36:56;;;;;;;7.00;6.70;;;19.70;60.80;;;;;;4967769;28;86235;-85
2021/05/19 13:39:50;;;;;;;7.72;7.43;;;19.30;59.10;;;;;;4973430;28;86616;-86
2021/05/19 13:43:03;;;;;;;6.03;5.80;;;19.40;56.00;;;;;;4987737;28;87652;-86
2021/05/19 13:45:28;;;;;;;6.78;6.47;;;19.20;56.70;;;;;;4913836;28;86961;-85
2021/05/19 13:47:54;;;;;;;7.25;6.95;;;18.20;64.60;;;;;;4924616;28;85833;-87
2021/05/19 13:50:20;;;;;;;8.38;7.93;;;18.70;59.00;;;;;;4926718;28;87021;-86
2021/05/19 13:52:46;;;;;;;6.38;6.13;;;19.10;60.90;;;;;;4917532;28;87059;-87
2021/05/19 13:55:11;;;;;;;5.40;5.20;;;19.50;55.50;;;;;;4922877;28;87866;-87
2021/05/19 13:57:38;;;;;;;7.10;6.80;;;20.30;55.60;;;;;;4915695;28;86845;-86
2021/05/19 14:00:05;;;;;;;6.40;6.10;;;21.00;53.30;;;;;;4920749;28;88826;-87
2021/05/19 14:02:31;;;;;;;7.70;7.25;;;20.50;56.80;;;;;;4915186;28;87994;-87
2021/05/19 14:05:03;;;;;;;5.47;5.28;;;21.00;52.30;;;;;;4917546;28;87065;-86
2021/05/19 14:07:52;;;;;;;7.43;7.05;;;21.20;51.80;;;;;;4945904;28;86646;-86
2021/05/19 14:13:18;;;;;;;9.10;8.60;;;;;;;;;;4986954;22;86223;-88
2021/05/19 14:16:56;;;;;;;9.50;9.10;;;22.20;51.80;;;;;;4960182;28;86964;-87
2021/05/19 14:18:51;;;;;;;12.73;12.23;;;22.20;50.90;;;;;;4953966;28;86966;-87
2021/05/19 14:29:17;;;;;;;11.15;10.68;;;21.60;50.40;;;;;;4949808;28;86998;-87
2021/05/19 14:31:43;;;;;;;11.95;11.52;;;21.50;51.40;;;;;;4962722;28;87466;-87
2021/05/19 14:34:09;;;;;;;14.90;14.32;;;21.40;51.20;;;;;;4973927;28;87013;-88
2021/05/19 15:00:49;;;;;;;7.75;7.45;;;;;;;;;;4967022;28;86625;-85
2021/05/19 15:03:16;;;;;;;7.95;7.35;;;16.80;63.20;;;;;;4970320;28;87661;-87
2021/05/19 15:05:42;;;;;;;5.85;5.55;;;16.40;66.40;;;;;;4970061;28;87224;-87
2021/05/19 15:08:08;;;;;;;6.72;6.43;;;16.00;68.20;;;;;;4964300;28;86982;-90
2021/05/19 15:10:38;;;;;;;5.05;4.85;;;15.80;68.60;;;;;;4956432;28;87193;-88
2021/05/19 15:13:04;;;;;;;4.68;4.40;;;15.50;68.30;;;;;;4963904;28;88712;-87
2021/05/19 15:15:31;;;;;;;5.13;4.93;;;15.40;68.00;;;;;;4949161;28;90179;-87
2021/05/19 15:17:57;;;;;;;3.35;3.15;;;15.40;64.60;;;;;;4973124;28;86945;-87
2021/05/19 15:20:24;;;;;;;4.90;4.70;;;15.40;65.20;;;;;;4968103;28;87598;-87
2021/05/19 15:22:50;;;;;;;4.00;3.85;;;15.40;62.90;;;;;;4967077;28;87695;-86
2021/05/19 15:25:16;;;;;;;4.30;4.10;;;15.30;62.80;;;;;;4962035;28;87499;-87
2021/05/19 15:27:42;;;;;;;4.38;4.15;;;15.20;63.30;;;;;;4969708;28;87086;-87
2021/05/19 15:30:08;;;;;;;5.07;4.82;;;15.30;63.60;;;;;;4963753;28;86225;-85
2021/05/19 15:32:34;;;;;;;4.38;4.18;;;15.00;63.10;;;;;;4967680;28;87768;-86
2021/05/19 15:35:00;;;;;;;5.18;4.97;;;;;;;;;;4968937;28;87100;-85
2021/05/19 15:37:26;;;;;;;4.90;4.70;;;14.50;64.10;;;;;;4960558;28;88654;-86
2021/05/19 15:40:00;;;;;;;6.60;6.30;;;14.60;67.10;;;;;;4966535;28;86702;-87
2021/05/19 15:42:27;;;;;;;4.97;4.68;;;14.50;64.10;;;;;;4969461;28;86841;-87
2021/05/19 15:44:54;;;;;;;3.08;2.88;;;14.40;65.30;;;;;;4963385;28;87727;-85
2021/05/19 15:47:20;;;;;;;5.05;4.65;;;14.20;65.80;;;;;;4968327;28;87115;-85
2021/05/19 15:49:46;;;;;;;4.72;4.53;;;14.00;67.10;;;;;;4969187;28;86844;-84
2021/05/19 15:52:12;;;;;;;6.65;6.45;;;;;;;;;;4962522;28;87335;-86
2021/05/19 15:54:38;;;;;;;5.93;5.63;;;13.40;70.70;;;;;;4963043;28;87259;-86
2021/05/19 15:57:05;;;;;;;4.15;3.75;;;13.40;71.20;;;;;;4963321;28;87143;-86
2021/05/19 15:59:30;;;;;;;4.93;4.72;;;13.30;72.30;;;;;;4964626;28;87150;-84
2021/05/19 16:01:56;;;;;;;4.00;3.70;;;13.20;74.10;;;;;;4974582;28;88694;-85
2021/05/19 16:04:24;;;;;;;4.88;4.57;;;13.00;76.60;;;;;;4949338;28;89439;-87
2021/05/19 16:06:50;;;;;;;3.58;3.38;;;12.80;79.20;;;;;;4969370;28;86595;-86
2021/05/19 16:09:16;;;;;;;3.20;2.97;;;12.70;81.80;;;;;;4961681;28;87097;-85
2021/05/19 16:11:44;;;;;;;3.30;3.10;;;12.50;79.80;;;;;;4972879;28;87043;-83
2021/05/19 16:14:10;;;;;;;4.75;4.45;;;12.40;80.10;;;;;;4964056;28;88142;-83
2021/05/19 16:16:36;;;;;;;5.45;5.05;;;12.40;80.70;;;;;;4964169;28;87289;-84
2021/05/19 16:19:03;;;;;;;3.90;3.70;;;12.40;81.10;;;;;;4967048;28;86157;-83
2021/05/19 16:21:28;;;;;;;4.43;4.22;;;12.40;80.50;;;;;;4967924;28;87025;-83
2021/05/19 16:23:54;;;;;;;3.88;3.67;;;12.40;79.40;;;;;;4960538;28;87155;-87
2021/05/19 16:26:21;;;;;;;4.18;3.97;;;12.50;81.60;;;;;;4948097;28;88069;-86
2021/05/19 16:28:49;;;;;;;3.70;3.45;;;12.70;83.70;;;;;;4966938;28;86982;-84
2021/05/19 16:31:20;;;;;;;3.25;3.05;;;12.80;82.00;;;;;;4960133;28;87514;-84
2021/05/19 16:34:09;;;;;;;3.17;3.08;;;12.90;81.10;;;;;;4961966;28;87035;-83
2021/05/19 16:36:35;;;;;;;5.22;5.03;;;13.00;79.00;;;;;;4961620;28;87146;-86